Time;durP1;ratioP1;P1;durP2;ratioP2;P2;SDS_P1;SDS_P2;PMS_P1;PMS_P2;Temp;Humidity;BMP_temperature;BMP_pressure;BME280_temperature;BME280_humidity;BME280_pressure;Samples;Min_cycle;Max_cycle;Signal;HPM_P1;HPM_P2
2023/10/14 00:02:21;;;;;;;23.35;6.13;;;;;;;;;;5026988;28;20412;-76
2023/10/14 00:04:52;;;;;;;21.00;6.03;;;;;;;;;;5010301;28;20499;-77
2023/10/14 00:07:24;;;;;;;23.40;5.50;;;;;;;;;;5041520;28;20440;-74
2023/10/14 00:09:52;;;;;;;24.88;5.70;;;;;;;;;;5011546;28;20447;-75
2023/10/14 00:12:20;;;;;;;27.40;6.15;;;;;;;;;;5028104;28;20484;-74
2023/10/14 00:14:48;;;;;;;24.77;5.90;;;;;;;;;;5011861;28;20478;-76
2023/10/14 00:17:18;;;;;;;24.48;5.25;;;;;;;;;;5010766;28;20416;-77
2023/10/14 00:19:55;;;;;;;23.95;5.10;;;;;;;;;;5012286;28;20957;-76
2023/10/14 00:22:26;;;;;;;20.17;4.60;;;;;;;;;;5044122;28;20474;-76
2023/10/14 00:24:53;;;;;;;21.08;4.90;;;;;;;;;;5009368;28;20430;-75
2023/10/14 00:27:21;;;;;;;21.92;5.18;;;;;;;;;;5010247;28;20448;-76
2023/10/14 00:29:49;;;;;;;20.50;4.47;;;;;;;;;;4993475;28;20417;-74
2023/10/14 00:32:15;;;;;;;20.73;5.22;;;;;;;;;;5027564;28;20483;-75
2023/10/14 00:34:42;;;;;;;19.40;4.70;;;;;;;;;;5010739;28;21132;-76
2023/10/14 00:37:10;;;;;;;21.20;4.47;;;;;;;;;;5043149;28;20417;-75
2023/10/14 00:39:38;;;;;;;20.02;5.03;;;;;;;;;;5010562;28;20508;-80
2023/10/14 00:42:08;;;;;;;24.85;4.53;;;;;;;;;;4994189;28;20455;-77
2023/10/14 00:44:35;;;;;;;21.80;4.72;;;;;;;;;;5018515;28;20408;-76
2023/10/14 00:47:06;;;;;;;20.80;4.57;;;;;;;;;;5026461;28;20425;-75
2023/10/14 00:49:35;;;;;;;21.30;4.70;;;;;;;;;;5010568;28;20411;-74
2023/10/14 00:52:07;;;;;;;22.13;5.00;;;;;;;;;;5010562;28;20416;-77
2023/10/14 00:57:38;;;;;;;19.90;5.00;;;;;;;;;;5010958;28;20404;-76
2023/10/14 00:59:56;;;;;;;21.05;4.43;;;;;;;;;;5000311;28;20436;-74
2023/10/14 01:02:33;;;;;;;21.35;4.25;;;;;;;;;;5011978;28;20408;-76
2023/10/14 01:05:07;;;;;;;18.77;4.50;;;;;;;;;;5029491;28;20432;-75
2023/10/14 01:07:34;;;;;;;20.48;3.88;;;;;;;;;;5009804;28;20431;-73
2023/10/14 01:10:01;;;;;;;19.38;4.60;;;;;;;;;;5026306;28;20471;-75
2023/10/14 01:12:39;;;;;;;22.65;5.00;;;;;;;;;;5007059;28;20427;-77
2023/10/14 01:15:22;;;;;;;20.02;4.00;;;;;;;;;;5039984;28;20463;-75
2023/10/14 01:17:52;;;;;;;19.33;3.60;;;;;;;;;;5009420;28;20443;-78
2023/10/14 01:22:52;;;;;;;18.70;3.92;;;;;;;;;;5011126;28;20515;-76
2023/10/14 01:25:19;;;;;;;20.92;3.80;;;;;;;;;;5010809;28;20424;-74
2023/10/14 01:27:45;;;;;;;18.52;4.13;;;;;;;;;;4999259;28;20485;-75
2023/10/14 01:30:20;;;;;;;21.27;4.20;;;;;;;;;;5009854;28;20401;-76
2023/10/14 01:35:31;;;;;;;22.90;4.20;;;;;;;;;;5026041;28;20409;-75
2023/10/14 01:38:00;;;;;;;18.40;3.37;;;;;;;;;;5009949;28;20401;-76
2023/10/14 01:40:40;;;;;;;20.05;3.50;;;;;;;;;;5010013;28;20415;-76
2023/10/14 01:43:08;;;;;;;20.02;4.43;;;;;;;;;;5010239;28;20448;-76
2023/10/14 01:45:48;;;;;;;20.27;3.50;;;;;;;;;;5011062;28;20413;-77
2023/10/14 01:48:21;;;;;;;20.35;4.30;;;;;;;;;;5015499;28;20422;-76
2023/10/14 01:50:54;;;;;;;18.55;3.85;;;;;;;;;;5010304;28;20857;-76
2023/10/14 01:53:27;;;;;;;20.08;3.70;;;;;;;;;;5041798;28;20416;-76
2023/10/14 01:55:55;;;;;;;21.58;3.65;;;;;;;;;;5011155;28;21076;-79
2023/10/14 01:58:23;;;;;;;19.55;4.13;;;;;;;;;;5009355;28;20413;-81
2023/10/14 02:00:53;;;;;;;18.05;3.58;;;;;;;;;;4989959;28;20474;-77
2023/10/14 02:03:20;;;;;;;20.15;4.15;;;;;;;;;;5006264;28;20416;-78
2023/10/14 02:05:51;;;;;;;18.17;3.97;;;;;;;;;;5009878;28;20413;-79
2023/10/14 02:08:21;;;;;;;18.45;3.53;;;;;;;;;;4992559;28;21114;-81
2023/10/14 02:10:50;;;;;;;22.42;4.40;;;;;;;;;;5024503;28;20447;-82
2023/10/14 02:13:17;;;;;;;20.25;3.50;;;;;;;;;;5009984;28;20503;-80
2023/10/14 02:15:46;;;;;;;19.47;3.43;;;;;;;;;;5013809;28;20487;-79
2023/10/14 02:18:20;;;;;;;18.65;3.30;;;;;;;;;;5006905;28;20423;-78
2023/10/14 02:20:56;;;;;;;20.23;3.33;;;;;;;;;;5038034;28;20420;-81
2023/10/14 02:23:24;;;;;;;17.80;3.05;;;;;;;;;;5009321;28;20410;-80
2023/10/14 02:25:56;;;;;;;19.70;3.38;;;;;;;;;;5043551;28;20952;-80
2023/10/14 02:28:24;;;;;;;18.02;2.60;;;;;;;;;;5012408;28;20424;-80
2023/10/14 02:30:53;;;;;;;17.55;2.47;;;;;;;;;;5014785;28;20416;-80
2023/10/14 02:33:20;;;;;;;15.82;1.98;;;;;;;;;;5013568;28;20455;-84
2023/10/14 02:35:47;;;;;;;15.82;1.80;;;;;;;;;;4999290;28;20515;-85
2023/10/14 02:38:17;;;;;;;20.30;1.70;;;;;;;;;;5013526;28;20404;-79
2023/10/14 02:40:44;;;;;;;14.65;1.40;;;;;;;;;;5014283;28;20491;-79
2023/10/14 02:43:16;;;;;;;15.10;1.10;;;;;;;;;;5013409;28;20499;-77
2023/10/14 02:45:46;;;;;;;14.50;1.10;;;;;;;;;;5046941;28;20404;-83
2023/10/14 02:48:18;;;;;;;14.30;1.20;;;;;;;;;;5013714;28;20494;-84
2023/10/14 02:50:50;;;;;;;14.80;1.20;;;;;;;;;;5046526;28;20474;-85
2023/10/14 02:53:22;;;;;;;14.25;1.02;;;;;;;;;;5046246;28;20436;-85
2023/10/14 02:55:53;;;;;;;16.40;1.30;;;;;;;;;;5012148;28;20968;-84
2023/10/14 02:58:21;;;;;;;14.10;1.00;;;;;;;;;;5021294;28;20449;-83
2023/10/14 03:00:58;;;;;;;14.80;1.00;;;;;;;;;;5016614;28;20460;-85
2023/10/14 03:03:29;;;;;;;15.70;1.10;;;;;;;;;;5013775;28;20397;-85
2023/10/14 03:06:05;;;;;;;14.10;1.00;;;;;;;;;;5013825;28;20428;-82
2023/10/14 03:08:34;;;;;;;14.63;1.50;;;;;;;;;;5014304;28;20424;-83
2023/10/14 03:11:15;;;;;;;15.50;1.30;;;;;;;;;;5046845;28;20413;-83
2023/10/14 03:13:45;;;;;;;14.60;1.10;;;;;;;;;;5007814;28;20443;-84
2023/10/14 03:16:15;;;;;;;14.80;1.10;;;;;;;;;;5013705;28;20475;-84
2023/10/14 03:18:44;;;;;;;15.10;1.00;;;;;;;;;;5014353;28;20413;-83
2023/10/14 03:21:22;;;;;;;14.20;1.00;;;;;;;;;;4993976;28;20506;-85
2023/10/14 03:23:49;;;;;;;15.02;1.13;;;;;;;;;;5045450;28;20428;-85
2023/10/14 03:26:19;;;;;;;14.20;1.10;;;;;;;;;;5046058;28;20413;-84
2023/10/14 03:28:50;;;;;;;14.50;1.20;;;;;;;;;;5042096;28;20429;-87
2023/10/14 03:31:19;;;;;;;14.10;1.00;;;;;;;;;;5024499;28;20420;-85
2023/10/14 03:33:46;;;;;;;16.48;1.23;;;;;;;;;;5033246;28;20929;-85
2023/10/14 03:36:16;;;;;;;16.20;1.38;;;;;;;;;;5014630;28;20405;-88
2023/10/14 03:38:46;;;;;;;14.30;1.40;;;;;;;;;;5014604;28;20435;-83
2023/10/14 03:41:18;;;;;;;16.20;1.27;;;;;;;;;;5013067;28;20507;-85
2023/10/14 03:49:20;;;;;;;14.52;1.40;;;;;;;;;;5014818;28;20512;-88
2023/10/14 03:51:54;;;;;;;15.57;1.33;;;;;;;;;;5014727;28;20423;-85
2023/10/14 03:54:26;;;;;;;16.38;1.30;;;;;;;;;;5023054;28;20424;-85
2023/10/14 03:56:56;;;;;;;17.30;1.40;;;;;;;;;;5028386;28;20467;-84
2023/10/14 03:59:26;;;;;;;15.10;1.40;;;;;;;;;;5044671;28;20840;-86
2023/10/14 04:01:58;;;;;;;15.80;1.50;;;;;;;;;;5009567;28;20409;-83
2023/10/14 04:04:26;;;;;;;15.73;1.30;;;;;;;;;;5008207;28;20401;-81
2023/10/14 04:09:37;;;;;;;22.25;2.10;;;;;;;;;;5009061;28;20435;-81
2023/10/14 04:12:08;;;;;;;20.45;2.08;;;;;;;;;;4993169;28;20460;-80
2023/10/14 04:14:37;;;;;;;27.27;2.25;;;;;;;;;;5009922;28;20434;-80
2023/10/14 04:19:44;;;;;;;21.60;2.15;;;;;;;;;;5012700;28;20479;-81
2023/10/14 04:24:52;;;;;;;20.85;2.33;;;;;;;;;;5011901;28;20404;-81
2023/10/14 04:30:11;;;;;;;20.83;2.40;;;;;;;;;;5024599;28;20926;-81
2023/10/14 04:32:46;;;;;;;19.08;3.00;;;;;;;;;;5044213;28;20417;-78
2023/10/14 04:35:12;;;;;;;23.15;2.60;;;;;;;;;;5009295;28;20417;-80
2023/10/14 04:37:53;;;;;;;18.20;2.20;;;;;;;;;;5026961;28;20425;-79
2023/10/14 04:40:37;;;;;;;25.48;3.30;;;;;;;;;;5011593;28;20409;-80
2023/10/14 04:45:52;;;;;;;23.75;2.28;;;;;;;;;;5027809;28;20451;-80
2023/10/14 04:51:18;;;;;;;23.60;2.50;;;;;;;;;;5001180;28;20419;-81
2023/10/14 04:53:49;;;;;;;19.50;2.00;;;;;;;;;;5012280;28;21012;-79
2023/10/14 04:56:29;;;;;;;17.95;2.50;;;;;;;;;;5028805;28;20416;-79
2023/10/14 04:58:56;;;;;;;23.85;2.45;;;;;;;;;;5010515;28;20416;-82
2023/10/14 05:01:24;;;;;;;19.13;2.53;;;;;;;;;;5010107;28;20809;-78
2023/10/14 05:03:57;;;;;;;19.92;2.10;;;;;;;;;;5011078;28;20409;-78
2023/10/14 05:06:29;;;;;;;20.73;2.10;;;;;;;;;;5017697;28;20431;-78
2023/10/14 05:08:56;;;;;;;23.45;3.05;;;;;;;;;;5012226;28;20435;-77
2023/10/14 05:11:25;;;;;;;22.92;2.72;;;;;;;;;;5011114;28;20495;-79
2023/10/14 05:14:08;;;;;;;18.90;2.95;;;;;;;;;;5019427;28;20474;-79
2023/10/14 05:16:51;;;;;;;22.90;3.50;;;;;;;;;;5021411;28;20416;-79
2023/10/14 05:22:13;;;;;;;19.65;2.28;;;;;;;;;;5007449;28;20434;-77
2023/10/14 05:24:48;;;;;;;21.70;3.30;;;;;;;;;;5004575;28;20885;-79
2023/10/14 05:27:17;;;;;;;20.75;2.47;;;;;;;;;;5042884;28;20407;-79
2023/10/14 05:29:50;;;;;;;19.88;2.90;;;;;;;;;;5010181;28;20420;-78
2023/10/14 05:32:23;;;;;;;18.90;2.80;;;;;;;;;;5043028;28;20405;-76
2023/10/14 05:34:53;;;;;;;21.15;2.45;;;;;;;;;;5011333;28;20492;-78
2023/10/14 05:37:23;;;;;;;20.35;2.20;;;;;;;;;;5042916;28;20409;-78
2023/10/14 05:39:54;;;;;;;18.25;1.85;;;;;;;;;;5009841;28;20902;-76
2023/10/14 05:42:21;;;;;;;21.38;2.88;;;;;;;;;;5043375;28;20432;-77
2023/10/14 05:44:49;;;;;;;22.80;3.33;;;;;;;;;;5011071;28;21007;-77
2023/10/14 05:47:17;;;;;;;24.52;2.42;;;;;;;;;;5009941;28;20417;-77
2023/10/14 05:49:44;;;;;;;20.02;2.30;;;;;;;;;;5042923;28;20941;-78
2023/10/14 05:52:12;;;;;;;22.05;3.10;;;;;;;;;;5009399;28;20877;-77
2023/10/14 05:54:39;;;;;;;22.35;3.20;;;;;;;;;;5008611;28;20479;-77
2023/10/14 05:57:08;;;;;;;21.70;2.40;;;;;;;;;;5012747;28;20448;-76
2023/10/14 05:59:37;;;;;;;24.25;3.88;;;;;;;;;;5014195;28;20411;-78
2023/10/14 06:02:06;;;;;;;23.75;2.70;;;;;;;;;;5015545;28;20408;-78
2023/10/14 06:04:39;;;;;;;18.42;2.65;;;;;;;;;;5014475;28;20458;-78
2023/10/14 06:07:06;;;;;;;19.53;2.90;;;;;;;;;;5013361;28;20419;-79
2023/10/14 06:09:34;;;;;;;25.05;2.80;;;;;;;;;;5012774;28;20451;-80
2023/10/14 06:12:01;;;;;;;20.95;2.70;;;;;;;;;;5011662;28;20409;-76
2023/10/14 06:14:29;;;;;;;25.30;2.92;;;;;;;;;;5012149;28;20905;-79
2023/10/14 06:16:57;;;;;;;23.37;3.47;;;;;;;;;;5013896;28;20438;-77
2023/10/14 06:19:24;;;;;;;20.77;2.60;;;;;;;;;;5045622;28;20400;-78
2023/10/14 06:21:51;;;;;;;23.10;2.35;;;;;;;;;;5011955;28;20431;-78
2023/10/14 06:24:18;;;;;;;22.00;3.00;;;;;;;;;;5015356;28;20431;-79
2023/10/14 06:26:46;;;;;;;23.80;2.25;;;;;;;;;;5014906;28;20963;-80
2023/10/14 06:29:13;;;;;;;25.70;3.37;;;;;;;;;;5014205;28;20519;-80
2023/10/14 06:31:40;;;;;;;18.20;2.30;;;;;;;;;;5029407;28;20423;-78
2023/10/14 06:34:09;;;;;;;22.95;2.78;;;;;;;;;;5014543;28;20401;-79
2023/10/14 06:36:36;;;;;;;22.45;2.75;;;;;;;;;;5013227;28;20421;-78
2023/10/14 06:39:13;;;;;;;24.30;4.20;;;;;;;;;;5013807;28;20502;-79
2023/10/14 06:41:43;;;;;;;23.77;2.78;;;;;;;;;;5011711;28;20415;-76
2023/10/14 06:44:15;;;;;;;20.52;2.80;;;;;;;;;;5013037;28;20568;-79
2023/10/14 06:46:44;;;;;;;18.65;2.80;;;;;;;;;;5013083;28;20452;-77
2023/10/14 06:49:13;;;;;;;24.98;3.78;;;;;;;;;;5012137;28;20420;-75
2023/10/14 06:51:42;;;;;;;22.00;3.50;;;;;;;;;;4999850;28;20420;-78
2023/10/14 06:54:14;;;;;;;22.38;3.20;;;;;;;;;;5046112;28;20412;-76
2023/10/14 06:56:40;;;;;;;23.05;2.80;;;;;;;;;;5013652;28;20415;-79
2023/10/14 06:59:11;;;;;;;21.40;3.00;;;;;;;;;;5028872;28;20413;-78
2023/10/14 07:01:39;;;;;;;26.37;3.80;;;;;;;;;;5012123;28;20482;-77
2023/10/14 07:04:06;;;;;;;21.40;2.50;;;;;;;;;;5013086;28;20412;-78
2023/10/14 07:06:33;;;;;;;26.33;3.22;;;;;;;;;;5010616;28;20886;-77
2023/10/14 07:09:05;;;;;;;19.90;3.13;;;;;;;;;;5019559;28;20428;-76
2023/10/14 07:11:32;;;;;;;22.20;3.30;;;;;;;;;;5012759;28;20419;-77
2023/10/14 07:13:58;;;;;;;21.98;2.75;;;;;;;;;;5012993;28;20432;-75
2023/10/14 07:16:25;;;;;;;22.73;3.00;;;;;;;;;;5010653;28;20509;-77
2023/10/14 07:18:53;;;;;;;19.58;2.58;;;;;;;;;;5005692;28;20409;-76
2023/10/14 07:21:19;;;;;;;22.70;2.83;;;;;;;;;;5012337;28;20428;-75
2023/10/14 07:23:46;;;;;;;21.48;3.70;;;;;;;;;;5012049;28;20420;-77
2023/10/14 07:26:13;;;;;;;18.80;2.38;;;;;;;;;;5013772;28;20897;-77
2023/10/14 07:28:44;;;;;;;20.60;2.42;;;;;;;;;;5010947;28;20432;-77
2023/10/14 07:31:11;;;;;;;25.40;3.50;;;;;;;;;;5012660;28;20440;-77
2023/10/14 07:33:40;;;;;;;21.30;2.80;;;;;;;;;;4993605;28;20513;-77
2023/10/14 07:36:11;;;;;;;22.02;3.00;;;;;;;;;;5013699;28;20770;-77
2023/10/14 07:38:38;;;;;;;21.80;2.97;;;;;;;;;;5012172;28;20510;-76
2023/10/14 07:41:08;;;;;;;23.20;3.53;;;;;;;;;;5036176;28;20419;-77
2023/10/14 07:43:34;;;;;;;20.58;2.95;;;;;;;;;;5026770;28;20503;-76
2023/10/14 07:46:02;;;;;;;24.67;2.40;;;;;;;;;;5013709;28;20492;-75
2023/10/14 07:48:29;;;;;;;25.10;3.60;;;;;;;;;;5011436;28;20520;-76
2023/10/14 07:50:58;;;;;;;22.42;3.10;;;;;;;;;;5045250;28;20408;-75
2023/10/14 07:53:32;;;;;;;21.90;2.58;;;;;;;;;;5011605;28;20463;-74
2023/10/14 07:56:02;;;;;;;21.50;2.88;;;;;;;;;;5012451;28;20409;-75
2023/10/14 07:58:31;;;;;;;19.20;2.30;;;;;;;;;;5032048;28;20913;-76
2023/10/14 08:00:57;;;;;;;21.98;2.90;;;;;;;;;;5012524;28;20462;-77
2023/10/14 08:03:25;;;;;;;21.45;3.00;;;;;;;;;;4996203;28;20479;-75
2023/10/14 08:05:53;;;;;;;21.80;2.30;;;;;;;;;;5010144;28;20413;-76
2023/10/14 08:08:21;;;;;;;20.30;2.50;;;;;;;;;;5012221;28;20967;-77
2023/10/14 08:10:50;;;;;;;24.10;2.70;;;;;;;;;;5009850;28;20408;-75
2023/10/14 08:13:24;;;;;;;21.07;2.53;;;;;;;;;;5017366;28;20755;-75
2023/10/14 08:15:51;;;;;;;20.57;2.20;;;;;;;;;;5012193;28;20424;-76
2023/10/14 08:18:19;;;;;;;22.33;2.38;;;;;;;;;;5010455;28;20405;-76
2023/10/14 08:20:46;;;;;;;18.65;2.50;;;;;;;;;;5010470;28;20405;-74
2023/10/14 08:23:12;;;;;;;18.25;2.60;;;;;;;;;;5043085;28;20463;-75
2023/10/14 08:25:41;;;;;;;21.35;2.58;;;;;;;;;;5011835;28;20415;-75
2023/10/14 08:28:10;;;;;;;19.67;2.42;;;;;;;;;;5011480;28;20413;-75
2023/10/14 08:30:46;;;;;;;20.42;2.80;;;;;;;;;;5011793;28;20424;-75
2023/10/14 08:33:13;;;;;;;20.50;2.40;;;;;;;;;;5010740;28;20463;-76
2023/10/14 08:35:42;;;;;;;21.90;3.47;;;;;;;;;;5010590;28;20416;-73
2023/10/14 08:38:14;;;;;;;20.17;2.88;;;;;;;;;;5010448;28;20417;-75
2023/10/14 08:40:41;;;;;;;20.30;2.60;;;;;;;;;;5010105;28;20440;-76
2023/10/14 08:43:10;;;;;;;19.98;2.20;;;;;;;;;;5010592;28;20882;-75
2023/10/14 08:45:39;;;;;;;18.60;2.92;;;;;;;;;;5012015;28;20401;-73
2023/10/14 08:48:06;;;;;;;19.55;2.90;;;;;;;;;;5011960;28;20499;-74
2023/10/14 08:50:33;;;;;;;26.25;2.90;;;;;;;;;;5012776;28;20439;-73
2023/10/14 08:53:02;;;;;;;18.00;2.00;;;;;;;;;;5010109;28;20417;-77
2023/10/14 08:55:32;;;;;;;17.02;2.20;;;;;;;;;;5009454;28;20416;-75
2023/10/14 08:58:04;;;;;;;19.80;2.30;;;;;;;;;;5010575;28;20413;-74
2023/10/14 09:00:36;;;;;;;19.60;2.67;;;;;;;;;;5042860;28;20416;-74
2023/10/14 09:03:05;;;;;;;20.42;2.40;;;;;;;;;;5006325;28;20422;-74
2023/10/14 09:05:32;;;;;;;18.35;2.92;;;;;;;;;;5009640;28;20408;-74
2023/10/14 09:07:59;;;;;;;21.37;2.40;;;;;;;;;;5001911;28;20520;-75
2023/10/14 09:10:26;;;;;;;22.07;2.40;;;;;;;;;;5011120;28;20514;-72
2023/10/14 09:12:54;;;;;;;22.10;2.28;;;;;;;;;;5011503;28;20896;-74
2023/10/14 09:15:21;;;;;;;20.67;2.40;;;;;;;;;;5010734;28;20427;-74
2023/10/14 09:17:49;;;;;;;22.45;2.60;;;;;;;;;;5011424;28;20434;-75
2023/10/14 09:20:30;;;;;;;19.20;2.35;;;;;;;;;;5009422;28;20404;-74
2023/10/14 09:23:15;;;;;;;25.38;3.65;;;;;;;;;;5009788;28;20914;-75
2023/10/14 09:25:43;;;;;;;20.65;3.55;;;;;;;;;;5010953;28;20493;-76
2023/10/14 09:28:10;;;;;;;17.50;2.30;;;;;;;;;;5017879;28;20420;-75
2023/10/14 09:30:37;;;;;;;22.20;2.90;;;;;;;;;;5033952;28;20446;-73
2023/10/14 09:33:06;;;;;;;35.00;4.60;;;;;;;;;;5003329;28;20497;-75
2023/10/14 09:35:33;;;;;;;18.98;3.00;;;;;;;;;;5011254;28;20983;-75
2023/10/14 09:38:00;;;;;;;21.23;2.35;;;;;;;;;;5009743;28;20429;-73
2023/10/14 09:40:26;;;;;;;22.95;2.80;;;;;;;;;;4995154;28;20975;-74
2023/10/14 09:42:53;;;;;;;22.35;2.42;;;;;;;;;;5011417;28;20948;-72
2023/10/14 09:45:22;;;;;;;19.52;2.60;;;;;;;;;;5009263;28;20916;-74
2023/10/14 09:47:50;;;;;;;24.00;2.50;;;;;;;;;;5009069;28;20421;-74
2023/10/14 09:50:19;;;;;;;21.00;3.35;;;;;;;;;;5014798;28;20430;-74
2023/10/14 09:52:47;;;;;;;22.97;3.00;;;;;;;;;;5025890;28;20491;-75
2023/10/14 09:55:15;;;;;;;21.90;2.22;;;;;;;;;;5010944;28;20401;-76
2023/10/14 09:57:42;;;;;;;18.30;2.20;;;;;;;;;;5010980;28;20447;-74
2023/10/14 10:00:10;;;;;;;23.15;2.42;;;;;;;;;;5009747;28;20499;-76
2023/10/14 10:02:43;;;;;;;17.88;2.08;;;;;;;;;;5002295;28;20413;-76
2023/10/14 10:05:16;;;;;;;21.45;2.33;;;;;;;;;;5023700;28;20930;-76
2023/10/14 10:07:53;;;;;;;22.92;2.60;;;;;;;;;;5042216;28;20417;-75
2023/10/14 10:10:22;;;;;;;19.38;1.95;;;;;;;;;;5025851;28;20925;-74
2023/10/14 10:12:55;;;;;;;17.75;2.60;;;;;;;;;;5011064;28;20888;-74
2023/10/14 10:15:23;;;;;;;18.23;2.30;;;;;;;;;;4991294;28;20482;-74
2023/10/14 10:17:54;;;;;;;19.80;2.40;;;;;;;;;;5008014;28;20408;-74
2023/10/14 10:20:26;;;;;;;18.27;1.83;;;;;;;;;;5008366;28;20409;-81
2023/10/14 10:22:55;;;;;;;20.85;2.10;;;;;;;;;;5007446;28;20433;-75
2023/10/14 10:25:22;;;;;;;19.20;2.63;;;;;;;;;;5010296;28;20463;-74
2023/10/14 10:27:52;;;;;;;17.75;2.38;;;;;;;;;;5042050;28;20501;-72
2023/10/14 10:30:19;;;;;;;20.30;2.67;;;;;;;;;;5042328;28;20428;-71
2023/10/14 10:32:49;;;;;;;18.42;2.20;;;;;;;;;;5014704;28;20412;-74
2023/10/14 10:35:17;;;;;;;20.13;2.20;;;;;;;;;;5010282;28;20409;-74
2023/10/14 10:37:47;;;;;;;20.98;1.98;;;;;;;;;;5009431;28;20436;-72
2023/10/14 10:40:17;;;;;;;23.15;2.30;;;;;;;;;;5010066;28;20463;-73
2023/10/14 10:42:45;;;;;;;19.00;2.20;;;;;;;;;;5009061;28;20432;-74
2023/10/14 10:45:15;;;;;;;19.75;2.00;;;;;;;;;;5019780;28;20443;-72
2023/10/14 10:47:45;;;;;;;18.33;2.05;;;;;;;;;;5045465;28;20421;-73
2023/10/14 10:50:15;;;;;;;17.25;1.70;;;;;;;;;;5013173;28;20424;-71
2023/10/14 10:52:42;;;;;;;21.48;2.55;;;;;;;;;;5013221;28;20451;-73
2023/10/14 10:55:10;;;;;;;20.55;1.70;;;;;;;;;;5004424;28;20460;-74
2023/10/14 10:57:38;;;;;;;17.98;2.10;;;;;;;;;;5029137;28;20432;-73
2023/10/14 11:00:09;;;;;;;18.80;2.47;;;;;;;;;;5011794;28;20471;-72
2023/10/14 11:02:36;;;;;;;23.35;2.60;;;;;;;;;;5010759;28;20474;-72
2023/10/14 11:05:03;;;;;;;17.77;2.50;;;;;;;;;;5011995;28;20412;-72
2023/10/14 11:07:32;;;;;;;18.77;1.80;;;;;;;;;;5012484;28;20421;-73
2023/10/14 11:10:00;;;;;;;19.13;2.05;;;;;;;;;;5012199;28;20786;-73
2023/10/14 11:12:27;;;;;;;15.63;1.95;;;;;;;;;;5013657;28;20408;-73
2023/10/14 11:14:58;;;;;;;19.50;2.05;;;;;;;;;;5010478;28;20747;-72
2023/10/14 11:17:26;;;;;;;19.90;2.63;;;;;;;;;;4997956;28;20535;-70
2023/10/14 11:19:53;;;;;;;18.00;2.00;;;;;;;;;;5013665;28;20794;-72
2023/10/14 11:22:20;;;;;;;19.83;2.40;;;;;;;;;;5001325;28;20497;-72
2023/10/14 11:24:47;;;;;;;17.13;2.00;;;;;;;;;;5012997;28;20900;-73
2023/10/14 11:27:14;;;;;;;18.15;2.05;;;;;;;;;;5013493;28;21198;-73
2023/10/14 11:29:41;;;;;;;18.83;2.10;;;;;;;;;;5013296;28;20979;-74
2023/10/14 11:32:12;;;;;;;18.35;1.75;;;;;;;;;;5013151;28;20496;-71
2023/10/14 11:34:42;;;;;;;21.00;2.30;;;;;;;;;;5010759;28;20412;-72
2023/10/14 11:37:10;;;;;;;18.40;2.47;;;;;;;;;;5011897;28;20416;-72
2023/10/14 11:39:37;;;;;;;21.95;2.85;;;;;;;;;;5044099;28;20459;-75
2023/10/14 11:42:04;;;;;;;18.63;1.90;;;;;;;;;;5028366;28;20495;-74
2023/10/14 11:44:31;;;;;;;17.73;1.70;;;;;;;;;;5011160;28;20475;-72
2023/10/14 11:46:57;;;;;;;18.73;2.00;;;;;;;;;;5012226;28;20417;-73
2023/10/14 11:49:27;;;;;;;22.42;2.40;;;;;;;;;;5012919;28;20432;-74
2023/10/14 11:51:53;;;;;;;19.10;2.22;;;;;;;;;;5012736;28;20411;-74
2023/10/14 11:54:24;;;;;;;19.00;2.20;;;;;;;;;;5012297;28;20413;-74
2023/10/14 11:56:50;;;;;;;20.35;2.03;;;;;;;;;;5012187;28;20467;-71
2023/10/14 11:59:17;;;;;;;18.50;1.90;;;;;;;;;;5011118;28;20423;-74
2023/10/14 12:01:45;;;;;;;19.17;2.38;;;;;;;;;;5012770;28;20412;-75
2023/10/14 12:04:14;;;;;;;24.75;2.20;;;;;;;;;;5011380;28;20420;-73
2023/10/14 12:06:43;;;;;;;18.05;2.00;;;;;;;;;;5011339;28;20436;-72
2023/10/14 12:09:10;;;;;;;16.50;1.70;;;;;;;;;;5012012;28;20421;-74
2023/10/14 12:11:44;;;;;;;18.87;1.97;;;;;;;;;;5010966;28;20436;-72
2023/10/14 12:14:11;;;;;;;15.90;1.60;;;;;;;;;;5010400;28;20401;-73
2023/10/14 12:16:40;;;;;;;15.90;1.60;;;;;;;;;;5011321;28;20439;-73
2023/10/14 12:19:11;;;;;;;16.05;1.92;;;;;;;;;;5012021;28;20412;-72
2023/10/14 12:21:41;;;;;;;18.23;1.98;;;;;;;;;;5024611;28;20472;-73
2023/10/14 12:24:09;;;;;;;19.52;2.25;;;;;;;;;;5008920;28;20470;-72
2023/10/14 12:26:44;;;;;;;16.88;1.70;;;;;;;;;;5021738;28;20424;-72
2023/10/14 12:29:12;;;;;;;18.20;1.90;;;;;;;;;;5012239;28;20478;-72
2023/10/14 12:31:43;;;;;;;18.52;2.00;;;;;;;;;;5009374;28;20428;-71
2023/10/14 12:34:11;;;;;;;17.10;2.10;;;;;;;;;;5010790;28;20421;-74
2023/10/14 12:36:40;;;;;;;22.40;2.10;;;;;;;;;;5026716;28;20420;-73
2023/10/14 12:39:19;;;;;;;15.30;1.50;;;;;;;;;;5010846;28;20507;-72
2023/10/14 12:41:49;;;;;;;16.75;1.80;;;;;;;;;;5016562;28;20401;-71
2023/10/14 12:44:17;;;;;;;16.88;1.80;;;;;;;;;;5015339;28;20767;-71
2023/10/14 12:46:45;;;;;;;20.10;1.60;;;;;;;;;;5010549;28;20499;-72
2023/10/14 12:49:17;;;;;;;18.17;1.80;;;;;;;;;;5011555;28;20408;-73
2023/10/14 12:51:44;;;;;;;17.27;1.83;;;;;;;;;;5026621;28;20559;-74
2023/10/14 12:54:16;;;;;;;16.02;1.60;;;;;;;;;;5008609;28;20410;-74
2023/10/14 12:56:43;;;;;;;16.50;1.80;;;;;;;;;;5011610;28;20423;-75
2023/10/14 12:59:12;;;;;;;18.50;2.00;;;;;;;;;;5010465;28;20435;-73
2023/10/14 13:01:46;;;;;;;18.50;2.50;;;;;;;;;;5011664;28;20448;-72
2023/10/14 13:04:21;;;;;;;16.70;2.20;;;;;;;;;;5009959;28;20432;-74
2023/10/14 13:06:49;;;;;;;16.80;1.98;;;;;;;;;;5001784;28;20411;-72
2023/10/14 13:09:19;;;;;;;18.25;2.00;;;;;;;;;;5041588;28;20543;-72
2023/10/14 13:11:45;;;;;;;19.87;2.50;;;;;;;;;;5011200;28;20511;-71
2023/10/14 13:14:25;;;;;;;16.73;2.00;;;;;;;;;;5011408;28;20892;-73
2023/10/14 13:16:54;;;;;;;17.42;1.90;;;;;;;;;;5010287;28;20409;-72
2023/10/14 13:19:23;;;;;;;19.13;2.70;;;;;;;;;;5011680;28;20479;-72
2023/10/14 13:21:50;;;;;;;19.20;2.30;;;;;;;;;;5009697;28;20459;-73
2023/10/14 13:24:18;;;;;;;17.42;1.65;;;;;;;;;;5025915;28;20416;-72
2023/10/14 13:26:45;;;;;;;17.10;1.80;;;;;;;;;;5010543;28;20419;-72
2023/10/14 13:29:13;;;;;;;15.93;1.85;;;;;;;;;;5042503;28;20405;-74
2023/10/14 13:31:40;;;;;;;19.58;2.40;;;;;;;;;;5010110;28;20857;-72
2023/10/14 13:34:08;;;;;;;17.73;1.80;;;;;;;;;;5018472;28;20520;-75
2023/10/14 13:36:35;;;;;;;18.92;2.30;;;;;;;;;;5011732;28;20508;-73
2023/10/14 13:39:22;;;;;;;18.00;1.80;;;;;;;;;;5011277;28;20959;-73
2023/10/14 13:41:49;;;;;;;18.95;2.20;;;;;;;;;;5033028;28;20463;-73
2023/10/14 13:44:16;;;;;;;17.10;1.98;;;;;;;;;;5008419;28;20412;-74
2023/10/14 13:46:42;;;;;;;15.45;1.60;;;;;;;;;;5009880;28;20416;-73
2023/10/14 13:49:09;;;;;;;17.10;1.80;;;;;;;;;;5010681;28;20412;-73
2023/10/14 13:51:36;;;;;;;17.80;1.92;;;;;;;;;;5017799;28;20420;-72
2023/10/14 13:54:03;;;;;;;18.60;1.87;;;;;;;;;;5010219;28;20420;-74
2023/10/14 13:56:31;;;;;;;15.15;1.83;;;;;;;;;;5042838;28;20463;-74
2023/10/14 13:58:58;;;;;;;17.88;2.40;;;;;;;;;;4991416;28;20414;-72
2023/10/14 14:01:25;;;;;;;16.17;1.90;;;;;;;;;;5011335;28;20409;-74
2023/10/14 14:03:57;;;;;;;17.77;2.03;;;;;;;;;;5010990;28;20427;-75
2023/10/14 14:06:28;;;;;;;18.67;1.58;;;;;;;;;;5042825;28;20429;-74
2023/10/14 14:08:57;;;;;;;14.65;1.45;;;;;;;;;;5039545;28;20722;-73
2023/10/14 14:11:23;;;;;;;23.10;2.80;;;;;;;;;;5010737;28;20905;-74
2023/10/14 14:13:51;;;;;;;19.67;1.95;;;;;;;;;;5009858;28;20455;-74
2023/10/14 14:16:18;;;;;;;18.10;2.30;;;;;;;;;;5040857;28;20503;-72
2023/10/14 14:18:49;;;;;;;17.77;1.93;;;;;;;;;;5012686;28;20502;-72
2023/10/14 14:21:16;;;;;;;17.77;2.03;;;;;;;;;;5004309;28;20820;-73
2023/10/14 14:23:43;;;;;;;17.08;2.60;;;;;;;;;;5013171;28;20467;-73
2023/10/14 14:26:13;;;;;;;18.58;3.08;;;;;;;;;;5017888;28;20436;-75
2023/10/14 14:28:41;;;;;;;17.25;2.30;;;;;;;;;;5013238;28;20413;-72
2023/10/14 14:31:12;;;;;;;18.30;2.15;;;;;;;;;;5009662;28;20925;-75
2023/10/14 14:33:40;;;;;;;17.45;1.90;;;;;;;;;;5008398;28;20426;-73
2023/10/14 14:36:10;;;;;;;18.65;2.10;;;;;;;;;;5014247;28;20475;-73
2023/10/14 14:38:38;;;;;;;23.00;2.00;;;;;;;;;;5027747;28;20917;-72
2023/10/14 14:41:07;;;;;;;21.38;4.28;;;;;;;;;;5029182;28;20471;-73
2023/10/14 14:43:34;;;;;;;18.00;1.80;;;;;;;;;;5045966;28;20452;-73
2023/10/14 14:46:05;;;;;;;18.80;2.70;;;;;;;;;;5013710;28;20413;-72
2023/10/14 14:48:33;;;;;;;19.15;2.20;;;;;;;;;;5045878;28;20417;-73
2023/10/14 14:51:00;;;;;;;16.20;1.60;;;;;;;;;;5013976;28;20531;-74
2023/10/14 14:53:27;;;;;;;20.17;2.35;;;;;;;;;;5014121;28;20503;-75
2023/10/14 14:55:53;;;;;;;17.60;2.03;;;;;;;;;;5027658;28;20903;-74
2023/10/14 14:58:20;;;;;;;21.60;2.55;;;;;;;;;;5034652;28;20425;-73
2023/10/14 15:00:48;;;;;;;20.90;2.50;;;;;;;;;;5017343;28;20500;-76
2023/10/14 15:03:20;;;;;;;17.17;1.90;;;;;;;;;;5010869;28;20496;-76
2023/10/14 15:05:51;;;;;;;19.40;1.90;;;;;;;;;;5018368;28;20916;-77
2023/10/14 15:08:18;;;;;;;21.95;2.22;;;;;;;;;;5012399;28;20412;-78
2023/10/14 15:10:45;;;;;;;22.27;1.92;;;;;;;;;;5013164;28;20428;-78
2023/10/14 15:13:12;;;;;;;17.00;1.80;;;;;;;;;;5029488;28;20459;-80
2023/10/14 15:15:41;;;;;;;21.17;1.92;;;;;;;;;;5011138;28;20464;-79
2023/10/14 15:18:08;;;;;;;20.23;1.80;;;;;;;;;;5010270;28;20428;-78